Time;durP1;ratioP1;P1;durP2;ratioP2;P2;SDS_P1;SDS_P2;PMS_P1;PMS_P2;Temp;Humidity;BMP_temperature;BMP_pressure;BME280_temperature;BME280_humidity;BME280_pressure;Samples;Min_cycle;Max_cycle;Signal;HPM_P1;HPM_P2
2021/08/30 00:02:34;;;;;;;19.17;14.63;;;;;;;21.49;100.00;100556.25;4867684;29;20092;-66
2021/08/30 00:05:20;;;;;;;20.02;14.98;;;;;;;21.03;100.00;100566.34;4880983;29;20029;-66
2021/08/30 00:08:05;;;;;;;20.45;14.65;;;;;;;20.84;100.00;100563.06;4880892;29;20037;-66
2021/08/30 00:10:51;;;;;;;24.90;16.23;;;;;;;20.63;100.00;100563.53;4880824;29;20025;-66
2021/08/30 00:13:37;;;;;;;23.80;16.10;;;;;;;20.88;100.00;100561.94;4868015;29;20043;-66
2021/08/30 00:16:23;;;;;;;21.48;16.27;;;;;;;20.86;100.00;100570.97;4867286;29;20036;-65
2021/08/30 00:19:09;;;;;;;19.20;14.65;;;;;;;20.74;100.00;100564.56;4881232;29;20116;-65
2021/08/30 00:21:54;;;;;;;20.25;14.38;;;;;;;20.38;100.00;100574.81;4880632;29;20044;-65
2021/08/30 00:24:40;;;;;;;20.58;13.98;;;;;;;20.38;100.00;100588.13;4867889;29;20135;-65
2021/08/30 00:27:26;;;;;;;16.80;14.13;;;;;;;20.38;100.00;100588.13;4880349;29;20057;-65
2021/08/30 00:30:12;;;;;;;16.15;12.77;;;;;;;20.32;100.00;100588.47;4880462;29;20041;-65
2021/08/30 00:32:58;;;;;;;15.95;13.15;;;;;;;20.02;100.00;100598.22;4880431;29;20037;-65
2021/08/30 00:35:44;;;;;;;14.65;11.82;;;;;;;19.99;100.00;100590.41;4880386;29;20039;-65
2021/08/30 00:38:29;;;;;;;15.93;12.45;;;;;;;19.77;100.00;100592.59;4880935;29;20380;-65
2021/08/30 00:41:15;;;;;;;15.18;12.15;;;;;;;19.76;100.00;100595.34;4880500;29;20041;-65
2021/08/30 00:44:01;;;;;;;15.57;11.75;;;;;;;19.69;100.00;100592.16;4880224;29;20051;-65
2021/08/30 00:46:47;;;;;;;14.82;11.55;;;;;;;20.03;100.00;100605.25;4880200;29;20057;-65
2021/08/30 00:49:32;;;;;;;14.95;11.65;;;;;;;19.95;100.00;100594.22;4867541;29;20040;-66
2021/08/30 00:52:18;;;;;;;14.30;11.75;;;;;;;19.91;100.00;100600.66;4867413;29;20037;-67
2021/08/30 00:55:05;;;;;;;15.52;12.20;;;;;;;19.97;100.00;100597.63;4880606;29;20097;-67
2021/08/30 00:57:51;;;;;;;15.95;11.52;;;;;;;19.69;100.00;100601.97;4879885;29;20040;-67
2021/08/30 01:00:38;;;;;;;13.52;11.52;;;;;;;19.88;100.00;100605.25;4880270;29;20040;-66
2021/08/30 01:03:23;;;;;;;15.07;11.90;;;;;;;19.88;100.00;100607.91;4879956;29;20029;-67
2021/08/30 01:06:21;;;;;;;15.45;11.48;;;;;;;19.96;100.00;100597.69;4880025;29;20048;-66
2021/08/30 01:09:17;;;;;;;16.27;12.07;;;;;;;19.81;100.00;100590.63;4879931;29;20033;-66
2021/08/30 01:12:16;;;;;;;15.07;12.05;;;;;;;19.64;100.00;100582.75;4867344;29;20037;-66
2021/08/30 01:15:03;;;;;;;15.32;11.45;;;;;;;19.28;100.00;100587.47;4879690;29;20113;-66
2021/08/30 01:17:51;;;;;;;13.75;10.88;;;;;;;19.36;100.00;100596.72;4880353;29;20096;-66
2021/08/30 01:20:42;;;;;;;15.27;10.90;;;;;;;19.45;100.00;100598.84;4879855;29;20037;-66
2021/08/30 01:23:37;;;;;;;12.25;10.70;;;;;;;19.13;100.00;100597.94;4880654;29;20068;-66
2021/08/30 01:26:33;;;;;;;10.70;9.43;;;;;;;19.28;100.00;100609.56;4867732;29;20593;-66
2021/08/30 01:29:31;;;;;;;11.48;8.98;;;;;;;19.42;100.00;100601.69;4867467;29;20359;-66
2021/08/30 01:32:37;;;;;;;11.43;9.45;;;;;;;19.60;100.00;100608.63;4881463;29;20068;-66
2021/08/30 01:35:25;;;;;;;13.15;10.02;;;;;;;19.76;100.00;100604.16;4868129;29;20467;-66
2021/08/30 01:38:11;;;;;;;12.57;10.20;;;;;;;19.72;100.00;100607.09;4879730;29;20120;-66
2021/08/30 01:40:59;;;;;;;12.75;10.48;;;;;;;19.58;100.00;100601.69;4879965;29;20029;-66
2021/08/30 01:43:46;;;;;;;12.32;10.73;;;;;;;19.25;100.00;100606.22;4883149;29;20043;-66
2021/08/30 01:46:34;;;;;;;13.13;11.02;;;;;;;19.42;100.00;100614.13;4882978;29;20061;-66
2021/08/30 01:49:23;;;;;;;13.25;11.30;;;;;;;19.03;100.00;100617.97;4883177;29;20029;-65
2021/08/30 01:52:09;;;;;;;14.23;11.95;;;;;;;19.42;100.00;100619.44;4883057;29;20033;-66
2021/08/30 01:54:56;;;;;;;14.48;12.15;;;;;;;19.26;100.00;100624.75;4883102;29;20044;-65
2021/08/30 02:00:48;;;;;;;16.63;12.02;;;;;;;19.05;100.00;100620.56;4883544;29;20040;-65
2021/08/30 02:03:34;;;;;;;14.68;12.77;;;;;;;19.51;100.00;100624.22;4882943;29;20033;-66
2021/08/30 02:06:20;;;;;;;14.55;12.75;;;;;;;19.07;100.00;100621.31;4869873;29;20043;-65
2021/08/30 02:09:05;;;;;;;15.32;12.90;;;;;;;19.27;100.00;100620.25;4882767;29;20021;-66
2021/08/30 02:11:51;;;;;;;16.20;12.20;;;;;;;18.76;100.00;100616.78;4883078;29;20043;-66
2021/08/30 02:14:37;;;;;;;16.55;13.40;;;;;;;18.99;100.00;100620.88;4869996;29;20037;-64
2021/08/30 02:17:30;;;;;;;14.32;12.77;;;;;;;18.58;100.00;100628.31;4869724;29;20040;-65
2021/08/30 02:20:21;;;;;;;16.45;13.50;;;;;;;18.69;100.00;100635.78;4882717;29;20039;-66
2021/08/30 02:23:07;;;;;;;18.23;14.57;;;;;;;18.90;100.00;100632.00;4883215;29;20077;-66
2021/08/30 02:25:55;;;;;;;18.10;14.30;;;;;;;18.10;100.00;100652.03;4882582;29;20044;-66
2021/08/30 02:28:43;;;;;;;17.60;14.35;;;;;;;18.45;100.00;100652.94;4882860;29;20438;-66
2021/08/30 02:31:31;;;;;;;15.88;13.48;;;;;;;17.86;100.00;100649.69;4883106;29;20029;-65
2021/08/30 02:34:20;;;;;;;16.02;13.70;;;;;;;18.18;100.00;100657.81;4868726;29;20035;-65
2021/08/30 02:37:07;;;;;;;21.20;16.33;;;;;;;17.96;100.00;100651.81;4882578;29;20116;-65
2021/08/30 02:39:55;;;;;;;19.38;15.48;;;;;;;18.12;100.00;100659.88;4882257;29;20112;-65
2021/08/30 02:42:41;;;;;;;17.52;14.88;;;;;;;18.19;100.00;100656.00;4882523;29;20044;-66
2021/08/30 02:45:29;;;;;;;17.63;14.48;;;;;;;18.14;100.00;100650.94;4868983;29;20033;-66
2021/08/30 02:48:17;;;;;;;16.85;14.00;;;;;;;18.33;100.00;100656.19;4882802;29;20354;-66
2021/08/30 02:51:05;;;;;;;19.88;14.88;;;;;;;18.26;100.00;100650.31;4882094;29;20115;-66
2021/08/30 02:53:52;;;;;;;19.38;15.45;;;;;;;18.23;100.00;100652.25;4881937;29;20043;-66
2021/08/30 02:56:41;;;;;;;17.00;14.15;;;;;;;18.19;100.00;100653.34;4881836;29;20138;-65
2021/08/30 02:59:28;;;;;;;18.05;14.13;;;;;;;18.33;100.00;100667.63;4882236;29;20427;-66
2021/08/30 03:02:14;;;;;;;18.77;14.57;;;;;;;18.30;100.00;100659.84;4882323;29;20071;-66
2021/08/30 03:05:01;;;;;;;16.98;13.90;;;;;;;18.46;100.00;100659.97;4867774;29;20097;-65
2021/08/30 03:07:48;;;;;;;16.98;13.82;;;;;;;18.20;100.00;100655.03;4882088;29;20033;-65
2021/08/30 03:10:34;;;;;;;16.15;13.90;;;;;;;18.33;100.00;100658.84;4881718;29;20088;-66
2021/08/30 03:13:20;;;;;;;15.18;13.40;;;;;;;18.36;100.00;100656.03;4882367;29;20057;-65
2021/08/30 03:16:07;;;;;;;16.25;13.35;;;;;;;18.22;100.00;100661.16;4881544;29;20040;-66
2021/08/30 03:18:54;;;;;;;17.67;14.18;;;;;;;18.44;100.00;100669.78;4882142;29;20033;-66
2021/08/30 03:21:40;;;;;;;16.98;13.63;;;;;;;18.21;100.00;100662.94;4868387;29;20109;-66
2021/08/30 03:24:28;;;;;;;15.52;13.30;;;;;;;18.06;100.00;100665.50;4881853;29;20033;-66
2021/08/30 03:27:15;;;;;;;15.35;13.35;;;;;;;17.92;100.00;100670.63;4881343;29;20032;-66
2021/08/30 03:30:02;;;;;;;14.60;13.00;;;;;;;18.18;100.00;100670.19;4881720;29;20033;-66
2021/08/30 03:32:49;;;;;;;14.48;12.98;;;;;;;18.43;100.00;100682.19;4881400;29;20032;-66
2021/08/30 03:35:35;;;;;;;15.65;13.27;;;;;;;18.23;100.00;100682.28;4881848;29;20039;-66
2021/08/30 03:38:22;;;;;;;15.43;13.15;;;;;;;18.45;100.00;100682.13;4881488;29;20040;-66
2021/08/30 03:41:08;;;;;;;13.55;11.88;;;;;;;18.10;100.00;100688.28;4881555;29;20179;-66
2021/08/30 03:43:55;;;;;;;14.82;12.32;;;;;;;17.91;100.00;100684.78;4881398;29;20100;-66
2021/08/30 03:46:41;;;;;;;13.57;12.05;;;;;;;18.03;100.00;100685.06;4880975;29;20053;-66
2021/08/30 03:49:28;;;;;;;16.10;12.40;;;;;;;18.22;100.00;100688.53;4881368;29;20044;-66
2021/08/30 03:52:15;;;;;;;17.48;12.48;;;;;;;18.31;100.00;100681.91;4881050;29;20033;-66
2021/08/30 03:55:01;;;;;;;13.38;12.02;;;;;;;18.60;100.00;100692.81;4881243;29;20029;-66
2021/08/30 03:57:52;;;;;;;13.52;11.45;;;;;;;18.22;100.00;100690.31;4880798;29;20069;-66
2021/08/30 04:00:40;;;;;;;14.63;11.85;;;;;;;18.68;100.00;100681.81;4881075;29;20116;-66
2021/08/30 04:03:26;;;;;;;16.48;11.93;;;;;;;18.44;100.00;100683.91;4867728;29;20029;-65
2021/08/30 04:06:14;;;;;;;14.15;11.60;;;;;;;18.28;100.00;100690.00;4881099;29;20040;-66
2021/08/30 04:09:00;;;;;;;12.40;10.80;;;;;;;18.21;100.00;100688.63;4867180;29;20048;-65
2021/08/30 04:11:48;;;;;;;13.20;11.80;;;;;;;18.36;100.00;100685.22;4880846;29;20029;-65
2021/08/30 04:14:34;;;;;;;12.65;11.35;;;;;;;18.42;100.00;100688.44;4880898;29;20152;-66
2021/08/30 04:17:20;;;;;;;13.00;11.27;;;;;;;18.30;100.00;100696.09;4881304;29;20033;-64
2021/08/30 04:20:07;;;;;;;12.93;11.52;;;;;;;18.40;100.00;100689.44;4880578;29;20470;-64
2021/08/30 04:22:53;;;;;;;14.23;11.00;;;;;;;18.30;100.00;100689.03;4880811;29;20073;-65
2021/08/30 04:25:39;;;;;;;12.57;11.23;;;;;;;18.42;100.00;100680.50;4880744;29;20043;-65
2021/08/30 04:28:25;;;;;;;12.43;10.77;;;;;;;18.75;100.00;100688.53;4880261;29;20033;-66
2021/08/30 04:31:10;;;;;;;12.75;11.32;;;;;;;18.59;100.00;100682.28;4866691;29;20028;-65
2021/08/30 04:33:56;;;;;;;11.63;10.25;;;;;;;18.73;100.00;100685.09;4880385;29;20077;-65
2021/08/30 04:36:42;;;;;;;11.98;10.68;;;;;;;18.51;100.00;100689.75;4880223;29;20033;-65
2021/08/30 04:39:28;;;;;;;12.70;11.00;;;;;;;18.49;100.00;100704.91;4880149;29;20154;-66
2021/08/30 04:42:13;;;;;;;12.90;10.93;;;;;;;18.42;100.00;100704.38;4880804;29;20126;-65
2021/08/30 04:44:59;;;;;;;13.85;11.77;;;;;;;18.58;100.00;100704.44;4880303;29;20064;-66
2021/08/30 04:47:45;;;;;;;14.07;11.10;;;;;;;18.44;100.00;100717.53;4880117;29;20053;-66
2021/08/30 04:50:31;;;;;;;12.75;11.23;;;;;;;18.59;100.00;100716.78;4880662;29;20087;-66
2021/08/30 04:53:17;;;;;;;13.30;11.75;;;;;;;18.70;100.00;100717.09;4880422;29;20068;-66
2021/08/30 04:56:03;;;;;;;14.75;11.85;;;;;;;18.44;100.00;100712.22;4879992;29;20035;-66
2021/08/30 04:58:49;;;;;;;12.93;11.23;;;;;;;18.37;100.00;100710.84;4880908;29;20037;-66
2021/08/30 05:01:34;;;;;;;12.20;10.90;;;;;;;18.46;100.00;100724.50;4880137;29;20029;-66
2021/08/30 05:04:20;;;;;;;13.35;11.88;;;;;;;18.78;100.00;100721.06;4880164;29;20037;-66
2021/08/30 05:07:06;;;;;;;17.02;11.55;;;;;;;18.63;100.00;100713.91;4880033;29;20029;-66
2021/08/30 05:09:51;;;;;;;14.32;11.80;;;;;;;18.55;100.00;100709.91;4879978;29;20069;-66
2021/08/30 05:12:37;;;;;;;13.45;12.05;;;;;;;18.23;100.00;100716.78;4881156;29;20044;-67
2021/08/30 05:15:23;;;;;;;13.20;11.60;;;;;;;18.44;100.00;100710.44;4879741;29;20377;-65
2021/08/30 05:18:09;;;;;;;13.57;12.00;;;;;;;18.75;100.00;100723.03;4870709;29;20040;-65
2021/08/30 05:20:55;;;;;;;13.13;11.70;;;;;;;18.82;100.00;100727.94;4884562;29;20107;-65
2021/08/30 05:23:40;;;;;;;13.68;11.38;;;;;;;19.08;100.00;100724.81;4884160;29;20116;-66
2021/08/30 05:26:26;;;;;;;14.10;12.38;;;;;;;18.58;100.00;100723.03;4870353;29;20041;-66
2021/08/30 05:29:13;;;;;;;16.77;11.82;;;;;;;18.81;100.00;100725.38;4883954;29;20060;-66
2021/08/30 05:31:59;;;;;;;13.43;11.55;;;;;;;18.75;100.00;100725.69;4884371;29;20043;-66
2021/08/30 05:34:44;;;;;;;13.57;12.15;;;;;;;18.58;100.00;100721.22;4883346;29;20036;-67
2021/08/30 05:37:30;;;;;;;15.50;11.73;;;;;;;18.88;100.00;100729.41;4884115;29;20060;-67
2021/08/30 05:40:16;;;;;;;13.55;12.05;;;;;;;19.03;100.00;100729.50;4883075;29;20037;-66
2021/08/30 05:43:02;;;;;;;12.60;11.18;;;;;;;19.28;100.00;100726.44;4883120;29;20454;-66
2021/08/30 05:45:48;;;;;;;13.68;10.93;;;;;;;19.47;100.00;100729.84;4882706;29;20068;-66
2021/08/30 05:48:33;;;;;;;13.85;10.85;;;;;;;19.46;100.00;100730.81;4883433;29;20041;-66
2021/08/30 05:51:19;;;;;;;14.05;11.38;;;;;;;19.54;100.00;100722.41;4883523;29;20056;-66
2021/08/30 05:54:05;;;;;;;12.68;11.20;;;;;;;19.47;100.00;100727.19;4883684;29;20033;-66
2021/08/30 05:56:51;;;;;;;12.50;11.20;;;;;;;19.71;100.00;100722.34;4869882;29;20043;-66
2021/08/30 05:59:36;;;;;;;12.70;11.30;;;;;;;19.81;100.00;100723.56;4870016;29;20029;-67
2021/08/30 06:02:22;;;;;;;13.80;11.57;;;;;;;19.74;100.00;100731.03;4882978;29;20041;-66
2021/08/30 06:05:09;;;;;;;13.10;11.52;;;;;;;19.57;100.00;100727.56;4885670;29;20400;-66
2021/08/30 06:07:54;;;;;;;17.50;12.18;;;;;;;19.48;100.00;100728.06;4883312;29;20354;-65
2021/08/30 06:10:40;;;;;;;16.45;12.32;;;;;;;19.49;100.00;100719.97;4868999;29;20355;-66
2021/08/30 06:13:26;;;;;;;15.07;12.43;;;;;;;19.71;100.00;100719.69;4883201;29;20028;-65
2021/08/30 06:16:12;;;;;;;15.90;13.15;;;;;;;19.46;100.00;100724.63;4882379;29;20036;-66
2021/08/30 06:18:58;;;;;;;14.93;13.10;;;;;;;19.56;100.00;100724.03;4883013;29;20120;-66
2021/08/30 06:21:44;;;;;;;14.88;13.27;;;;;;;19.64;100.00;100721.81;4882573;29;20025;-65
2021/08/30 06:24:30;;;;;;;15.90;13.70;;;;;;;19.54;100.00;100733.03;4882677;29;20033;-66
2021/08/30 06:27:17;;;;;;;17.05;13.00;;;;;;;19.84;100.00;100732.22;4882011;29;20119;-66
2021/08/30 06:30:03;;;;;;;18.75;13.65;;;;;;;19.41;100.00;100746.09;4882591;29;20025;-66
2021/08/30 06:32:49;;;;;;;16.77;13.18;;;;;;;19.75;100.00;100738.06;4882330;29;20047;-66
2021/08/30 06:35:37;;;;;;;15.45;13.43;;;;;;;20.00;100.00;100751.72;4882717;29;20043;-65
2021/08/30 06:38:23;;;;;;;14.40;12.82;;;;;;;20.06;100.00;100754.06;4868624;29;20105;-66
2021/08/30 06:41:08;;;;;;;15.98;13.68;;;;;;;19.85;100.00;100749.88;4882440;29;20488;-66
2021/08/30 06:43:55;;;;;;;16.77;14.65;;;;;;;20.06;100.00;100761.16;4867957;29;20071;-66
2021/08/30 06:46:41;;;;;;;16.27;14.05;;;;;;;19.94;100.00;100757.38;4881868;29;20041;-66
2021/08/30 06:49:27;;;;;;;16.27;12.98;;;;;;;19.86;100.00;100759.59;4882661;29;20032;-67
2021/08/30 06:52:13;;;;;;;15.23;12.60;;;;;;;20.36;100.00;100770.09;4881911;29;20033;-66
2021/08/30 06:54:58;;;;;;;15.13;12.10;;;;;;;20.54;100.00;100764.59;4882403;29;20123;-66
2021/08/30 06:57:44;;;;;;;13.65;12.25;;;;;;;20.55;100.00;100766.31;4881767;29;20029;-66
2021/08/30 07:00:30;;;;;;;13.18;11.77;;;;;;;20.32;100.00;100763.22;4882227;29;20089;-65
2021/08/30 07:03:16;;;;;;;13.80;12.30;;;;;;;20.61;100.00;100760.63;4868819;29;20033;-66
2021/08/30 07:06:02;;;;;;;15.02;12.52;;;;;;;20.52;100.00;100778.94;4868945;29;20044;-66
2021/08/30 07:08:47;;;;;;;13.15;11.65;;;;;;;20.46;100.00;100768.66;4882006;29;20112;-66
2021/08/30 07:11:33;;;;;;;12.30;11.00;;;;;;;20.92;100.00;100767.72;4882179;29;20032;-66
2021/08/30 07:14:19;;;;;;;12.93;11.63;;;;;;;20.81;100.00;100773.66;4881713;29;20033;-66
2021/08/30 07:17:05;;;;;;;13.02;11.43;;;;;;;20.73;100.00;100777.72;4881990;29;20025;-66
2021/08/30 07:19:52;;;;;;;12.50;11.20;;;;;;;21.00;100.00;100774.31;4882215;29;20472;-66
2021/08/30 07:22:38;;;;;;;12.45;11.05;;;;;;;21.02;100.00;100771.56;4868944;29;20471;-67
2021/08/30 07:25:23;;;;;;;16.10;11.55;;;;;;;21.31;100.00;100778.66;4882767;29;20028;-66
2021/08/30 07:28:10;;;;;;;12.27;10.98;;;;;;;21.43;100.00;100778.78;4881965;29;20146;-68
2021/08/30 07:30:56;;;;;;;14.02;11.38;;;;;;;21.44;100.00;100780.50;4882570;29;20449;-65
2021/08/30 07:33:45;;;;;;;11.98;10.65;;;;;;;21.66;100.00;100783.56;4882292;29;20037;-66
2021/08/30 07:36:32;;;;;;;13.63;10.55;;;;;;;21.76;100.00;100779.41;4882334;29;20032;-65
2021/08/30 07:39:18;;;;;;;13.75;10.82;;;;;;;21.67;100.00;100787.97;4881592;29;20033;-66
2021/08/30 07:42:04;;;;;;;12.25;10.95;;;;;;;21.99;100.00;100778.81;4883132;29;20461;-66
2021/08/30 07:44:50;;;;;;;13.35;11.50;;;;;;;21.74;100.00;100783.13;4881350;29;20037;-66
2021/08/30 07:47:36;;;;;;;12.98;11.35;;;;;;;21.59;100.00;100779.56;4881191;29;20471;-67
2021/08/30 07:50:22;;;;;;;15.50;11.45;;;;;;;22.36;100.00;100783.53;4881761;29;20036;-67
2021/08/30 07:53:07;;;;;;;15.20;11.65;;;;;;;22.28;100.00;100784.97;4882016;29;20358;-66
2021/08/30 07:55:55;;;;;;;14.35;12.13;;;;;;;22.41;100.00;100785.88;4880990;29;20033;-66
2021/08/30 07:58:41;;;;;;;13.07;11.20;;;;;;;22.36;100.00;100783.53;4882323;29;20032;-67
2021/08/30 08:01:27;;;;;;;13.18;10.93;;;;;;;22.42;100.00;100792.94;4882513;29;20033;-66
2021/08/30 08:04:12;;;;;;;14.88;11.00;;;;;;;22.68;100.00;100795.66;4881447;29;20029;-66
2021/08/30 08:06:58;;;;;;;12.65;11.35;;;;;;;22.74;100.00;100795.25;4869008;29;20391;-67
2021/08/30 08:09:44;;;;;;;11.70;10.50;;;;;;;22.58;100.00;100789.19;4880484;29;20025;-66
2021/08/30 08:12:29;;;;;;;12.27;10.98;;;;;;;23.04;100.00;100803.91;4880943;29;20029;-66
2021/08/30 08:15:15;;;;;;;11.13;9.80;;;;;;;22.91;100.00;100792.31;4867064;29;20036;-66
2021/08/30 08:18:01;;;;;;;15.35;10.88;;;;;;;23.31;100.00;100796.69;4881137;29;20036;-66
2021/08/30 08:20:48;;;;;;;11.77;9.93;;;;;;;23.46;100.00;100793.94;4880651;29;20352;-65
2021/08/30 08:23:34;;;;;;;13.88;9.93;;;;;;;23.72;100.00;100795.66;4880730;29;20343;-65
2021/08/30 08:26:20;;;;;;;13.18;11.43;;;;;;;23.23;100.00;100791.00;4881001;29;20075;-67
2021/08/30 08:29:06;;;;;;;11.88;10.68;;;;;;;23.90;99.44;100797.88;4867737;29;20047;-65
2021/08/30 08:31:52;;;;;;;13.73;10.05;;;;;;;23.63;100.00;100791.81;4881026;29;20037;-65
2021/08/30 08:34:38;;;;;;;11.32;10.20;;;;;;;23.70;96.48;100793.06;4880398;29;20028;-66
2021/08/30 08:37:23;;;;;;;11.60;9.85;;;;;;;24.02;95.97;100788.16;4880426;29;20504;-66
2021/08/30 08:40:12;;;;;;;16.63;10.73;;;;;;;24.29;94.99;100786.16;4867068;29;20029;-66
2021/08/30 08:42:57;;;;;;;12.77;9.80;;;;;;;24.69;93.40;100788.50;4867216;29;20542;-65
2021/08/30 08:45:45;;;;;;;11.65;10.45;;;;;;;24.62;92.67;100789.06;4879713;29;20064;-67
2021/08/30 08:48:31;;;;;;;11.60;10.00;;;;;;;24.98;91.80;100789.00;4880573;29;20331;-66
2021/08/30 08:51:17;;;;;;;26.67;10.05;;;;;;;24.90;90.92;100788.72;4879927;29;20048;-65
2021/08/30 08:54:07;;;;;;;13.18;10.00;;;;;;;24.73;89.85;100779.28;4880647;29;20060;-65
2021/08/30 08:56:54;;;;;;;11.77;9.40;;;;;;;24.81;89.71;100792.09;4879663;29;20116;-65
2021/08/30 08:59:39;;;;;;;10.57;9.48;;;;;;;24.91;87.21;100790.44;4881040;29;20044;-65
2021/08/30 09:02:30;;;;;;;11.13;9.93;;;;;;;24.76;85.98;100787.09;4867195;29;20119;-65
2021/08/30 09:05:24;;;;;;;12.63;9.63;;;;;;;24.88;84.20;100801.38;4881620;29;20374;-65
2021/08/30 09:08:29;;;;;;;12.00;10.00;;;;;;;24.46;86.21;100788.44;4880751;29;20029;-70
2021/08/30 09:11:21;;;;;;;13.50;11.15;;;;;;;24.73;86.01;100798.03;4882435;29;20037;-66
2021/08/30 09:14:21;;;;;;;15.55;12.60;;;;;;;24.77;87.78;100801.34;4883249;29;20063;-68
2021/08/30 09:17:10;;;;;;;11.52;10.32;;;;;;;24.99;86.58;100804.13;4880747;29;20029;-68
2021/08/30 09:19:56;;;;;;;13.02;10.15;;;;;;;25.05;85.45;100798.28;4881934;29;20029;-67
2021/08/30 09:22:42;;;;;;;15.10;10.88;;;;;;;24.80;86.06;100803.78;4881703;29;20096;-67
2021/08/30 09:25:33;;;;;;;12.68;10.55;;;;;;;24.98;88.20;100794.34;4881241;29;20025;-67
2021/08/30 09:28:33;;;;;;;11.07;9.88;;;;;;;24.91;85.90;100795.81;4880247;29;20035;-66
2021/08/30 09:31:19;;;;;;;11.63;9.57;;;;;;;25.16;83.93;100791.13;4881800;29;20033;-66
2021/08/30 09:34:10;;;;;;;11.27;9.35;;;;;;;24.72;81.96;100787.44;4880258;29;20434;-66
2021/08/30 09:36:56;;;;;;;9.60;8.57;;;;;;;24.75;79.89;100784.53;4879806;29;20036;-66
2021/08/30 09:40:02;;;;;;;9.18;8.02;;;;;;;25.03;77.60;100793.03;4879935;29;20037;-66
2021/08/30 09:42:57;;;;;;;9.82;8.50;;;;;;;25.02;79.43;100791.34;4868248;29;20096;-65
2021/08/30 09:45:44;;;;;;;9.50;8.48;;;;;;;24.87;79.74;100786.28;4879997;29;20052;-67
2021/08/30 09:48:31;;;;;;;9.43;7.97;;;;;;;24.72;78.79;100784.75;4867882;29;20043;-66
2021/08/30 09:51:24;;;;;;;9.48;7.90;;;;;;;24.91;78.11;100785.09;4867809;29;20037;-66
2021/08/30 09:54:10;;;;;;;12.90;8.38;;;;;;;24.78;76.51;100782.47;4866648;29;20040;-67
2021/08/30 09:56:57;;;;;;;8.40;7.43;;;;;;;25.25;76.89;100789.56;4879286;29;20348;-66
2021/08/30 09:59:45;;;;;;;10.77;8.02;;;;;;;24.89;75.93;100779.84;4880398;29;20064;-67
2021/08/30 10:02:34;;;;;;;8.75;7.38;;;;;;;25.20;78.56;100778.34;4882172;29;20076;-68
2021/08/30 10:05:23;;;;;;;8.38;7.03;;;;;;;25.12;78.28;100776.25;4883451;29;20048;-68
2021/08/30 10:08:09;;;;;;;9.73;6.93;;;;;;;25.25;73.82;100779.72;4883405;29;20048;-67
2021/08/30 10:10:56;;;;;;;9.50;7.05;;;;;;;25.13;73.63;100769.06;4883203;29;20463;-66
2021/08/30 10:13:43;;;;;;;8.07;7.25;;;;;;;25.29;76.12;100778.53;4883278;29;20064;-67
2021/08/30 10:16:29;;;;;;;8.23;6.85;;;;;;;25.01;73.69;100775.34;4884063;29;20032;-66
2021/08/30 10:19:25;;;;;;;8.25;6.93;;;;;;;25.40;71.50;100770.50;4882933;29;20052;-66
2021/08/30 10:22:19;;;;;;;14.13;7.38;;;;;;;25.18;75.12;100778.47;4882241;29;20037;-65
2021/08/30 10:25:15;;;;;;;7.72;6.72;;;;;;;25.50;72.63;100778.69;4884249;29;20104;-65
2021/08/30 10:28:07;;;;;;;8.25;6.47;;;;;;;25.61;72.56;100786.75;4882391;29;20025;-66
2021/08/30 10:30:55;;;;;;;10.20;6.40;;;;;;;25.32;70.64;100791.69;4883735;29;20045;-65
2021/08/30 10:33:44;;;;;;;9.30;6.25;;;;;;;25.76;68.08;100783.72;4882989;29;20116;-66
2021/08/30 10:36:30;;;;;;;6.10;5.55;;;;;;;25.42;67.09;100794.53;4882575;29;20477;-68
2021/08/30 10:39:15;;;;;;;6.40;5.80;;;;;;;25.31;68.29;100784.63;4869905;29;20450;-68
2021/08/30 10:42:02;;;;;;;7.53;6.10;;;;;;;25.38;67.15;100779.63;4883531;29;20061;-67
2021/08/30 10:45:03;;;;;;;6.13;5.05;;;;;;;25.64;64.84;100775.78;4882991;29;20424;-68
2021/08/30 10:47:59;;;;;;;5.93;5.32;;;;;;;26.37;64.23;100777.00;4883520;29;20072;-67
2021/08/30 10:50:48;;;;;;;6.05;5.45;;;;;;;26.07;64.29;100771.41;4884766;29;20029;-67
2021/08/30 10:53:34;;;;;;;7.82;5.90;;;;;;;26.36;66.16;100770.75;4883959;29;20052;-68
2021/08/30 10:56:25;;;;;;;5.88;5.28;;;;;;;26.15;63.90;100767.13;4883895;29;20115;-67
2021/08/30 10:59:25;;;;;;;9.57;5.55;;;;;;;26.45;62.94;100779.91;4884347;29;20109;-67
2021/08/30 11:02:11;;;;;;;6.72;5.50;;;;;;;26.48;61.38;100779.66;4884339;29;20499;-67
2021/08/30 11:04:57;;;;;;;5.45;4.88;;;;;;;26.02;60.56;100777.16;4883357;29;20427;-68
2021/08/30 11:07:43;;;;;;;6.13;4.90;;;;;;;26.39;61.62;100781.25;4882952;29;20032;-67
2021/08/30 11:10:29;;;;;;;7.78;5.07;;;;;;;26.51;61.36;100780.25;4883226;29;20093;-68
2021/08/30 11:13:26;;;;;;;5.85;5.32;;;;;;;26.19;59.75;100782.03;4883107;29;20052;-67
2021/08/30 11:16:25;;;;;;;6.85;4.88;;;;;;;26.19;60.38;100781.16;4882563;29;20093;-67
2021/08/30 11:19:13;;;;;;;6.57;5.45;;;;;;;26.43;59.04;100777.34;4883295;29;20048;-67
2021/08/30 11:22:00;;;;;;;6.50;5.60;;;;;;;26.59;57.42;100776.97;4883802;29;20371;-67
2021/08/30 11:24:46;;;;;;;7.07;5.55;;;;;;;26.62;58.92;100776.72;4883712;29;20100;-66
2021/08/30 11:27:34;;;;;;;8.18;5.97;;;;;;;27.03;57.70;100779.47;4882350;29;20501;-66
2021/08/30 11:30:20;;;;;;;5.20;4.70;;;;;;;26.80;55.15;100775.22;4882032;29;20033;-67
2021/08/30 11:33:06;;;;;;;6.53;5.47;;;;;;;26.51;56.29;100772.19;4883226;29;20025;-67
2021/08/30 11:35:59;;;;;;;6.85;5.32;;;;;;;26.67;56.85;100785.25;4882431;29;20048;-67
2021/08/30 11:38:56;;;;;;;5.68;5.07;;;;;;;26.75;56.75;100774.72;4881659;29;20545;-67
2021/08/30 11:41:44;;;;;;;6.38;5.35;;;;;;;26.79;56.66;100768.97;4882285;29;20064;-67
2021/08/30 11:44:31;;;;;;;6.65;5.18;;;;;;;27.20;54.56;100778.94;4881520;29;20029;-66
2021/08/30 11:47:19;;;;;;;7.40;5.95;;;;;;;27.23;53.54;100774.16;4882662;29;20478;-66
2021/08/30 11:50:10;;;;;;;6.78;4.65;;;;;;;27.42;53.93;100768.06;4882776;29;20037;-66
2021/08/30 11:52:59;;;;;;;12.93;7.85;;;;;;;27.10;52.04;100773.47;4881249;29;20033;-66
2021/08/30 11:55:45;;;;;;;8.90;6.10;;;;;;;27.39;51.44;100763.78;4868136;29;20108;-66
2021/08/30 11:58:33;;;;;;;8.30;4.75;;;;;;;27.35;51.19;100762.34;4882359;29;20471;-66
2021/08/30 12:01:19;;;;;;;4.88;4.13;;;;;;;26.96;50.34;100771.06;4881985;29;20447;-66
2021/08/30 12:04:16;;;;;;;7.13;3.90;;;;;;;27.23;50.10;100771.47;4881171;29;20033;-67
2021/08/30 12:07:12;;;;;;;5.05;3.78;;;;;;;27.44;49.25;100769.63;4869218;29;20111;-67
2021/08/30 12:09:59;;;;;;;5.55;4.90;;;;;;;26.95;50.04;100763.13;4881165;29;20033;-67
2021/08/30 12:12:53;;;;;;;5.60;4.40;;;;;;;27.33;49.39;100769.69;4881719;29;20370;-67
2021/08/30 12:15:39;;;;;;;5.07;4.10;;;;;;;27.38;48.61;100758.53;4880781;29;20104;-67
2021/08/30 12:18:25;;;;;;;5.57;3.90;;;;;;;27.55;48.74;100766.00;4880947;29;20029;-66
2021/08/30 12:21:11;;;;;;;4.18;3.47;;;;;;;27.52;49.45;100756.34;4882404;29;20029;-67
2021/08/30 12:23:57;;;;;;;4.82;3.65;;;;;;;27.22;48.86;100755.44;4881230;29;20035;-67
2021/08/30 12:26:49;;;;;;;4.38;3.53;;;;;;;27.75;47.90;100746.25;4879890;29;20033;-67
2021/08/30 12:29:39;;;;;;;6.82;3.88;;;;;;;27.84;47.84;100736.56;4880753;29;20108;-67
2021/08/30 12:32:25;;;;;;;3.78;3.38;;;;;;;27.67;48.17;100745.22;4881015;29;20036;-68
2021/08/30 12:35:20;;;;;;;3.83;3.47;;;;;;;27.61;48.84;100738.56;4881616;29;20116;-67
2021/08/30 12:38:11;;;;;;;3.88;3.55;;;;;;;27.95;48.95;100742.69;4868768;29;20037;-66
2021/08/30 12:41:00;;;;;;;4.57;2.90;;;;;;;28.10;47.26;100743.16;4868120;29;20203;-67
2021/08/30 12:43:47;;;;;;;4.55;3.53;;;;;;;27.82;47.27;100744.78;4883216;29;20033;-66
2021/08/30 12:46:33;;;;;;;6.40;3.42;;;;;;;27.60;46.92;100744.06;4881567;29;20061;-66